createdAt,value
2023-04-07T00:00:28.449Z,99899.16
2023-04-07T00:03:30.900Z,99905.28
2023-04-07T00:06:33.280Z,99911.41
2023-04-07T00:09:35.569Z,99901.63
2023-04-07T00:12:37.869Z,99912.59
2023-04-07T00:15:40.198Z,99901.22
2023-04-07T00:18:42.595Z,99898.38
2023-04-07T00:21:44.816Z,99903.06
2023-04-07T00:24:47.309Z,99897.34
2023-04-07T00:27:49.593Z,99899.00
2023-04-07T00:30:52.107Z,99896.31
2023-04-07T00:33:55.979Z,99901.22
2023-04-07T00:36:58.468Z,99893.69
2023-04-07T00:40:01.031Z,99891.03
2023-04-07T00:43:03.385Z,99899.81
2023-04-07T00:46:06.118Z,99879.66
2023-04-07T00:49:11.183Z,99883.72
2023-04-07T00:52:14.813Z,99878.84
2023-04-07T00:55:17.290Z,99891.47
2023-04-07T00:58:19.705Z,99882.91
2023-04-07T01:01:23.682Z,99877.63
2023-04-07T01:04:38.565Z,99888.59
2023-04-07T01:08:02.538Z,99877.56
2023-04-07T01:11:19.054Z,99881.69
2023-04-07T01:14:21.475Z,99872.28
2023-04-07T01:17:33.487Z,99868.00
2023-04-07T01:20:36.397Z,99862.94
2023-04-07T01:24:03.556Z,99880.44
2023-04-07T01:27:21.976Z,99860.53
2023-04-07T01:30:25.660Z,99856.84
2023-04-07T01:33:32.206Z,99857.69
2023-04-07T01:36:34.619Z,99858.88
2023-04-07T01:39:37.793Z,99850.34
2023-04-07T01:42:41.172Z,99850.75
2023-04-07T01:45:44.309Z,99856.84
2023-04-07T01:48:48.127Z,99852.78
2023-04-07T01:51:50.934Z,99858.06
2023-04-07T01:54:54.542Z,99849.34
2023-04-07T01:57:56.813Z,99856.66
2023-04-07T02:00:59.760Z,99836.91
2023-04-07T02:04:15.721Z,99844.22
2023-04-07T02:07:27.616Z,99849.94
2023-04-07T02:10:30.640Z,99831.63
2023-04-07T02:13:37.771Z,99850.94
2023-04-07T02:16:41.950Z,99840.19
2023-04-07T02:19:45.299Z,99865.41
2023-04-07T02:22:47.817Z,99842.41
2023-04-07T02:25:50.217Z,99853.41
2023-04-07T02:28:52.554Z,99851.13
2023-04-07T02:31:56.638Z,99835.66
2023-04-07T02:34:59.030Z,99833.84
2023-04-07T02:38:01.547Z,99839.94
2023-04-07T02:41:03.819Z,99858.88
2023-04-07T02:44:06.320Z,99860.50
2023-04-07T02:47:08.758Z,99853.38
2023-04-07T02:50:11.411Z,99846.47
2023-04-07T02:53:13.874Z,99846.88
2023-04-07T02:56:16.910Z,99847.06
2023-04-07T02:59:19.389Z,99845.84
2023-04-07T03:02:21.712Z,99845.25
2023-04-07T03:05:24.210Z,99834.44
2023-04-07T03:08:27.354Z,99827.97
2023-04-07T03:11:30.924Z,99845.88
2023-04-07T03:14:35.244Z,99846.28
2023-04-07T03:17:37.764Z,99847.91
2023-04-07T03:20:42.187Z,99841.38
2023-04-07T03:23:47.294Z,99847.91
2023-04-07T03:26:51.413Z,99847.91
2023-04-07T03:29:59.534Z,99841.19
2023-04-07T03:33:03.047Z,99849.34
2023-04-07T03:36:07.636Z,99854.81
2023-04-07T03:39:10.379Z,99850.34
2023-04-07T03:42:13.230Z,99841.41
2023-04-07T03:45:16.578Z,99839.16
2023-04-07T03:48:24.579Z,99837.53
2023-04-07T03:51:38.537Z,99848.09
2023-04-07T03:54:48.095Z,99848.94
2023-04-07T03:57:50.563Z,99867.84
2023-04-07T04:00:52.868Z,99851.34
2023-04-07T04:03:55.800Z,99856.84
2023-04-07T04:07:05.982Z,99860.72
2023-04-07T04:10:28.565Z,99863.38
2023-04-07T04:13:31.126Z,99862.53
2023-04-07T04:16:37.794Z,99881.47
2023-04-07T04:19:48.148Z,99876.19
2023-04-07T04:23:10.599Z,99868.66
2023-04-07T04:26:13.249Z,99868.66
2023-04-07T04:29:17.723Z,99862.75
2023-04-07T04:32:21.348Z,99857.44
2023-04-07T04:35:23.761Z,99883.31
2023-04-07T04:38:39.070Z,99871.88
2023-04-07T04:41:51.924Z,99889.41
2023-04-07T04:44:57.280Z,99875.78
2023-04-07T04:48:00.755Z,99884.34
2023-04-07T04:51:03.348Z,99884.13
2023-04-07T04:54:06.872Z,99885.97
2023-04-07T04:57:09.939Z,99885.53
2023-04-07T05:00:14.556Z,99889.22
2023-04-07T05:03:20.105Z,99897.97
2023-04-07T05:06:27.683Z,99893.88
2023-04-07T05:09:33.251Z,99887.38
2023-04-07T05:12:35.981Z,99894.50
2023-04-07T05:15:38.384Z,99898.38
2023-04-07T05:18:44.266Z,99907.34
2023-04-07T05:21:46.810Z,99901.66
2023-04-07T05:24:49.854Z,99916.91
2023-04-07T05:27:52.100Z,99898.78
2023-04-07T05:30:54.535Z,99903.47
2023-04-07T05:34:01.257Z,99911.41
2023-04-07T05:37:09.167Z,99908.34
2023-04-07T05:40:12.246Z,99912.22
2023-04-07T05:43:14.547Z,99907.75
2023-04-07T05:46:17.070Z,99912.00
2023-04-07T05:49:27.899Z,99915.88
2023-04-07T05:52:37.564Z,99923.22
2023-04-07T05:55:51.897Z,99917.13
2023-04-07T05:59:10.774Z,99923.19
2023-04-07T06:02:13.840Z,99908.75
2023-04-07T06:05:16.693Z,99917.31
2023-04-07T06:08:20.242Z,99920.34
2023-04-07T06:11:22.609Z,99909.78
2023-04-07T06:14:25.906Z,99910.38
2023-04-07T06:17:28.478Z,99908.13
2023-04-07T06:20:31.255Z,99906.91
2023-04-07T06:23:33.688Z,99911.38
2023-04-07T06:26:36.513Z,99908.94
2023-04-07T06:29:38.823Z,99922.38
2023-04-07T06:32:42.219Z,99925.25
2023-04-07T06:35:44.660Z,99924.44
2023-04-07T06:38:48.323Z,99931.38
2023-04-07T06:41:50.692Z,99924.84
2023-04-07T06:44:53.410Z,99945.19
2023-04-07T06:47:55.701Z,99937.47
2023-04-07T06:50:57.986Z,99945.81
2023-04-07T06:54:00.613Z,99944.78
2023-04-07T06:57:02.937Z,99944.19
2023-04-07T07:00:07.994Z,99944.00
2023-04-07T07:03:10.554Z,99952.13
2023-04-07T07:06:13.130Z,99961.88
2023-04-07T07:09:16.228Z,99970.88
2023-04-07T07:12:18.580Z,99961.72
2023-04-07T07:15:20.915Z,99976.97
2023-04-07T07:18:23.293Z,99970.88
2023-04-07T07:21:26.758Z,99979.81
2023-04-07T07:24:29.357Z,99992.25
2023-04-07T07:27:31.591Z,99982.25
2023-04-07T07:30:33.891Z,99986.75
2023-04-07T07:33:36.354Z,99992.47
2023-04-07T07:36:38.801Z,99988.38
2023-04-07T07:39:41.282Z,99989.22
2023-04-07T07:42:43.585Z,99995.31
2023-04-07T07:45:45.881Z,100003.63
2023-04-07T07:48:48.141Z,100005.28
2023-04-07T07:51:50.538Z,100001.41
2023-04-07T07:54:53.025Z,100007.31
2023-04-07T07:57:55.634Z,100024.22
2023-04-07T08:00:57.969Z,100006.53
2023-04-07T08:04:00.511Z,100033.19
2023-04-07T08:07:03.937Z,100015.25
2023-04-07T08:10:06.860Z,100023.81
2023-04-07T08:13:09.211Z,100020.97
2023-04-07T08:16:14.728Z,100028.91
2023-04-07T08:19:17.082Z,100023.81
2023-04-07T08:22:21.125Z,100028.28
2023-04-07T08:25:23.548Z,100021.97
2023-04-07T08:28:26.669Z,100029.91
2023-04-07T08:31:29.084Z,100024.22
2023-04-07T08:34:31.485Z,100039.09
2023-04-07T08:37:34.520Z,100033.38
2023-04-07T08:40:37.099Z,100044.00
2023-04-07T08:43:40.845Z,100046.63
2023-04-07T08:46:43.750Z,100039.69
2023-04-07T08:49:48.729Z,100041.34
2023-04-07T08:52:54.241Z,100046.41
2023-04-07T08:55:57.075Z,100047.88
2023-04-07T08:58:59.543Z,100041.34
2023-04-07T09:02:02.470Z,100042.16
2023-04-07T09:05:06.823Z,100047.66
2023-04-07T09:08:09.173Z,100046.63
2023-04-07T09:11:12.258Z,100041.72
2023-04-07T09:14:15.528Z,100045.59
2023-04-07T09:17:17.878Z,100039.88
2023-04-07T09:20:20.603Z,100040.28
2023-04-07T09:23:37.345Z,100049.47
2023-04-07T09:26:39.666Z,100042.94
2023-04-07T09:29:43.870Z,100038.69
2023-04-07T09:32:46.215Z,100035.22
2023-04-07T09:35:53.523Z,100056.00
2023-04-07T09:38:55.939Z,100052.13
2023-04-07T09:41:58.615Z,100056.81
2023-04-07T09:45:01.702Z,100049.88
2023-04-07T09:48:27.841Z,100054.78
2023-04-07T09:51:30.121Z,100055.97
2023-04-07T09:54:37.760Z,100042.50
2023-04-07T09:57:41.602Z,100049.81
2023-04-07T10:00:43.934Z,100054.47
2023-04-07T10:03:48.042Z,100046.19
2023-04-07T10:06:50.732Z,100056.81
2023-04-07T10:09:53.059Z,100048.66
2023-04-07T10:12:57.337Z,100057.78
2023-04-07T10:16:00.494Z,100045.13
2023-04-07T10:19:03.441Z,100054.53
2023-04-07T10:22:06.724Z,100058.38
2023-04-07T10:25:11.672Z,100053.72
2023-04-07T10:28:14.672Z,100059.19
2023-04-07T10:31:18.208Z,100045.75
2023-04-07T10:34:46.080Z,100058.53
2023-04-07T10:38:07.336Z,100064.41
2023-04-07T10:41:31.917Z,100066.88
2023-04-07T10:44:43.374Z,100059.94
2023-04-07T10:47:58.076Z,100057.94
2023-04-07T10:51:07.762Z,100061.25
2023-04-07T10:54:23.907Z,100049.41
2023-04-07T10:57:26.197Z,100060.84
2023-04-07T11:00:28.786Z,100068.53
2023-04-07T11:03:34.224Z,100075.25
2023-04-07T11:06:47.235Z,100065.22
2023-04-07T11:09:49.608Z,100069.19
2023-04-07T11:12:59.981Z,100062.63
2023-04-07T11:16:02.515Z,100075.59
2023-04-07T11:19:04.825Z,100054.16
2023-04-07T11:25:27.806Z,100056.72
2023-04-07T11:28:31.002Z,100062.28
2023-04-07T11:31:33.838Z,100061.50
2023-04-07T11:34:36.814Z,100068.28
2023-04-07T11:37:39.130Z,100057.25
2023-04-07T11:40:41.429Z,100066.38
2023-04-07T11:43:43.728Z,100055.19
2023-04-07T11:46:59.110Z,100067.59
2023-04-07T11:50:01.902Z,100056.47
2023-04-07T11:53:04.210Z,100060.44
2023-04-07T11:56:09.950Z,100062.22
2023-04-07T11:59:23.955Z,100065.50
2023-04-07T12:02:33.927Z,100065.78
2023-04-07T12:05:46.073Z,100073.28
2023-04-07T12:08:48.399Z,100063.56
2023-04-07T12:11:50.697Z,100074.75
2023-04-07T12:14:53.309Z,100075.16
2023-04-07T12:17:55.885Z,100062.28
2023-04-07T12:20:59.098Z,100058.00
2023-04-07T12:24:02.536Z,100061.84
2023-04-07T12:27:04.926Z,100057.16
2023-04-07T12:30:08.225Z,100045.50
2023-04-07T12:33:10.911Z,100057.13
2023-04-07T12:36:13.396Z,100048.34
2023-04-07T12:39:16.656Z,100060.53
2023-04-07T12:42:18.981Z,100049.50
2023-04-07T12:45:21.408Z,100062.50
2023-04-07T12:48:24.085Z,100059.34
2023-04-07T12:51:27.212Z,100053.28
2023-04-07T12:54:30.455Z,100052.91
2023-04-07T12:57:32.950Z,100050.00
2023-04-07T13:00:35.795Z,100060.88
2023-04-07T13:03:38.552Z,100064.03
2023-04-07T13:06:41.034Z,100059.44
2023-04-07T13:09:43.759Z,100054.38
2023-04-07T13:12:46.451Z,100062.31
2023-04-07T13:15:49.019Z,100063.78
2023-04-07T13:18:51.588Z,100075.00
2023-04-07T13:21:53.973Z,100066.38
2023-04-07T13:24:56.352Z,100059.81
2023-04-07T13:27:59.998Z,100055.72
2023-04-07T13:31:02.388Z,100053.72
2023-04-07T13:34:04.856Z,100064.63
2023-04-07T13:37:07.410Z,100057.94
2023-04-07T13:40:10.184Z,100060.19
2023-04-07T13:43:12.781Z,100065.88
2023-04-07T13:46:28.008Z,100069.88
2023-04-07T13:49:31.128Z,100074.97
2023-04-07T13:52:35.445Z,100075.69
2023-04-07T13:55:38.757Z,100078.88
2023-04-07T13:58:41.090Z,100075.25
2023-04-07T14:01:43.523Z,100074.81
2023-04-07T14:04:46.264Z,100071.28
2023-04-07T14:07:48.822Z,100056.06
2023-04-07T14:10:51.500Z,100069.88
2023-04-07T14:13:57.007Z,100073.63
2023-04-07T14:16:59.822Z,100067.13
2023-04-07T14:20:02.260Z,100074.47
2023-04-07T14:23:04.501Z,100077.50
2023-04-07T14:26:10.472Z,100072.06
2023-04-07T14:29:13.467Z,100080.63
2023-04-07T14:32:17.006Z,100069.16
2023-04-07T14:35:19.310Z,100076.63
2023-04-07T14:38:26.061Z,100080.97
2023-04-07T14:41:28.437Z,100074.88
2023-04-07T14:44:31.380Z,100091.66
2023-04-07T14:47:33.685Z,100080.03
2023-04-07T14:50:36.049Z,100087.56
2023-04-07T14:53:38.805Z,100086.94
2023-04-07T14:56:41.522Z,100075.09
2023-04-07T14:59:43.907Z,100083.03
2023-04-07T15:02:46.487Z,100081.34
2023-04-07T15:05:49.297Z,100075.91
2023-04-07T15:08:52.094Z,100094.66
2023-04-07T15:11:55.111Z,100092.22
2023-04-07T15:14:57.822Z,100101.09
2023-04-07T15:18:00.085Z,100101.00
2023-04-07T15:21:02.400Z,100102.69
2023-04-07T15:24:04.883Z,100088.66
2023-04-07T15:27:07.900Z,100099.28
2023-04-07T15:30:10.728Z,100091.75
2023-04-07T15:33:13.209Z,100089.53
2023-04-07T15:36:15.729Z,100091.16
2023-04-07T15:39:18.436Z,100103.19
2023-04-07T15:42:20.999Z,100080.56
2023-04-07T15:45:23.409Z,100089.94
2023-04-07T15:48:26.008Z,100097.50
2023-04-07T15:51:29.659Z,100105.84
2023-04-07T15:54:32.313Z,100100.78
2023-04-07T15:57:34.597Z,100104.84
2023-04-07T16:00:38.452Z,100097.50
2023-04-07T16:03:40.955Z,100120.75
2023-04-07T16:06:43.292Z,100111.81
2023-04-07T16:09:45.949Z,100115.50
2023-04-07T16:12:48.322Z,100121.63
2023-04-07T16:15:50.617Z,100113.47
2023-04-07T16:18:53.156Z,100117.56
2023-04-07T16:21:55.516Z,100118.75
2023-04-07T16:24:57.771Z,100125.50
2023-04-07T16:28:00.104Z,100131.81
2023-04-07T16:31:02.985Z,100131.00
2023-04-07T16:34:05.388Z,100127.34
2023-04-07T16:37:07.659Z,100133.84
2023-04-07T16:40:11.219Z,100143.06
2023-04-07T16:43:13.473Z,100142.03
2023-04-07T16:46:15.863Z,100135.50
2023-04-07T16:49:18.259Z,100148.16
2023-04-07T16:52:20.870Z,100151.59
2023-04-07T16:55:23.582Z,100134.47
2023-04-07T16:58:26.029Z,100150.78
2023-04-07T17:01:30.147Z,100150.19
2023-04-07T17:04:32.808Z,100146.91
2023-04-07T17:07:35.452Z,100140.78
2023-04-07T17:10:37.695Z,100158.72
2023-04-07T17:13:40.494Z,100166.28
2023-04-07T17:16:42.817Z,100153.44
2023-04-07T17:19:45.208Z,100157.28
2023-04-07T17:22:49.031Z,100156.28
2023-04-07T17:25:51.827Z,100166.88
2023-04-07T17:28:54.161Z,100166.06
2023-04-07T17:31:56.862Z,100170.56
2023-04-07T17:34:59.148Z,100175.44
2023-04-07T17:38:04.183Z,100178.31
2023-04-07T17:41:06.784Z,100189.84
2023-04-07T17:44:09.058Z,100186.44
2023-04-07T17:47:11.484Z,100182.09
2023-04-07T17:50:14.577Z,100205.09
2023-04-07T17:53:17.263Z,100203.88
2023-04-07T17:56:20.575Z,100217.72
2023-04-07T17:59:23.032Z,100219.41
2023-04-07T18:02:26.778Z,100222.47
2023-04-07T18:05:31.191Z,100222.59
2023-04-07T18:08:33.538Z,100225.31
2023-04-07T18:11:36.361Z,100223.03
2023-04-07T18:14:38.678Z,100231.00
2023-04-07T18:17:41.488Z,100241.84
2023-04-07T18:20:43.895Z,100233.25
2023-04-07T18:23:46.537Z,100242.63
2023-04-07T18:26:49.040Z,100251.13
2023-04-07T18:29:51.948Z,100246.81
2023-04-07T18:32:55.425Z,100251.09
2023-04-07T18:35:57.781Z,100246.56
2023-04-07T18:39:00.245Z,100257.38
2023-04-07T18:42:02.581Z,100253.19
2023-04-07T18:45:05.301Z,100266.19
2023-04-07T18:48:07.944Z,100269.75
2023-04-07T18:51:11.399Z,100275.81
2023-04-07T18:54:14.010Z,100270.97
2023-04-07T18:57:16.721Z,100271.78
2023-04-07T19:00:19.058Z,100272.69
2023-04-07T19:03:21.950Z,100262.50
2023-04-07T19:06:24.331Z,100279.63
2023-04-07T19:09:26.743Z,100263.94
2023-04-07T19:12:29.229Z,100275.56
2023-04-07T19:15:38.473Z,100257.31
2023-04-07T19:18:40.915Z,100264.72
2023-04-07T19:21:43.861Z,100274.88
2023-04-07T19:24:46.118Z,100290.31
2023-04-07T19:27:48.365Z,100277.59
2023-04-07T19:30:50.912Z,100285.66
2023-04-07T19:33:53.276Z,100281.31
2023-04-07T19:36:55.596Z,100291.78
2023-04-07T19:40:02.771Z,100284.72
2023-04-07T19:43:05.684Z,100290.09
2023-04-07T19:46:08.880Z,100303.03
2023-04-07T19:49:11.602Z,100298.81
2023-04-07T19:52:13.910Z,100290.38
2023-04-07T19:55:17.526Z,100303.94
2023-04-07T19:58:22.035Z,100307.09
2023-04-07T20:01:24.784Z,100296.69
2023-04-07T20:04:27.063Z,100301.19
2023-04-07T20:07:31.089Z,100296.50
2023-04-07T20:10:33.338Z,100291.22
2023-04-07T20:13:35.727Z,100313.09
2023-04-07T20:16:38.201Z,100292.50
2023-04-07T20:19:41.473Z,100293.41
2023-04-07T20:22:44.097Z,100295.34
2023-04-07T20:25:46.394Z,100297.81
2023-04-07T20:28:49.003Z,100300.53
2023-04-07T20:31:51.620Z,100305.97
2023-04-07T20:34:54.311Z,100314.81
2023-04-07T20:37:56.612Z,100308.97
2023-04-07T20:40:59.023Z,100297.22
2023-04-07T20:44:01.323Z,100308.28
2023-04-07T20:47:08.440Z,100309.31
2023-04-07T20:50:11.367Z,100291.44
2023-04-07T20:53:13.710Z,100300.34
2023-04-07T20:56:16.402Z,100300.78
2023-04-07T20:59:18.798Z,100310.94
2023-04-07T21:02:21.525Z,100302.13
2023-04-07T21:05:23.982Z,100303.66
2023-04-07T21:08:26.476Z,100304.16
2023-04-07T21:11:28.833Z,100303.44
2023-04-07T21:14:32.200Z,100311.75
2023-04-07T21:17:34.630Z,100303.56
2023-04-07T21:20:38.050Z,100316.22
2023-04-07T21:23:40.959Z,100302.94
2023-04-07T21:26:43.305Z,100322.34
2023-04-07T21:29:45.575Z,100318.78
2023-04-07T21:32:48.089Z,100318.03
2023-04-07T21:35:51.586Z,100307.25
2023-04-07T21:38:54.211Z,100312.00
2023-04-07T21:41:57.437Z,100316.22
2023-04-07T21:44:59.930Z,100328.38
2023-04-07T21:48:02.438Z,100316.34
2023-04-07T21:51:04.819Z,100328.44
2023-04-07T21:54:07.650Z,100322.34
2023-04-07T21:57:09.981Z,100318.88
2023-04-07T22:00:14.071Z,100311.56
2023-04-07T22:03:20.423Z,100329.19
2023-04-07T22:06:22.816Z,100323.88
2023-04-07T22:09:25.247Z,100320.50
2023-04-07T22:12:27.605Z,100342.31
2023-04-07T22:15:30.049Z,100320.50
2023-04-07T22:18:32.444Z,100327.06
2023-04-07T22:21:34.765Z,100338.91
2023-04-07T22:24:37.068Z,100336.72
2023-04-07T22:27:39.386Z,100331.41
2023-04-07T22:30:41.698Z,100330.53
2023-04-07T22:33:44.136Z,100340.97
2023-04-07T22:36:46.594Z,100324.47
2023-04-07T22:39:48.959Z,100341.09
2023-04-07T22:42:51.259Z,100335.28
2023-04-07T22:45:53.889Z,100341.47
2023-04-07T22:48:57.228Z,100348.41
2023-04-07T22:51:59.519Z,100336.03
2023-04-07T22:55:01.923Z,100328.03
2023-04-07T22:58:04.401Z,100345.00
2023-04-07T23:01:07.150Z,100348.41
2023-04-07T23:04:09.538Z,100346.59
2023-04-07T23:07:11.866Z,100356.94
2023-04-07T23:10:14.209Z,100344.81
2023-04-07T23:13:18.960Z,100343.53
2023-04-07T23:16:21.449Z,100349.03
2023-04-07T23:19:24.328Z,100346.25
2023-04-07T23:22:27.120Z,100336.44
2023-04-07T23:25:29.488Z,100353.34
2023-04-07T23:28:31.796Z,100347.38
2023-04-07T23:31:34.830Z,100341.03
2023-04-07T23:34:37.198Z,100353.13
2023-04-07T23:37:39.499Z,100355.69
2023-04-07T23:40:41.910Z,100346.31
2023-04-07T23:43:44.327Z,100348.06
2023-04-07T23:46:46.831Z,100349.41
2023-04-07T23:49:49.159Z,100351.44
2023-04-07T23:52:51.583Z,100342.63
2023-04-07T23:55:54.339Z,100356.59
2023-04-07T23:58:56.612Z,100355.59
